Time;durP1;ratioP1;P1;durP2;ratioP2;P2;SDS_P1;SDS_P2;PMS_P1;PMS_P2;Temp;Humidity;BMP_temperature;BMP_pressure;BME280_temperature;BME280_humidity;BME280_pressure;Samples;Min_cycle;Max_cycle;Signal;HPM_P1;HPM_P2
2023/04/09 00:01:16;;;;;;;;;;;;;;;;;;4966880;28;89028;-61
2023/04/09 00:03:41;;;;;;;;;;;;;;;;;;4966180;28;89596;-64
2023/04/09 00:06:06;;;;;;;;;;;;;;;;;;4965690;28;89588;-62
2023/04/09 00:08:32;;;;;;;;;;;;;;;;;;4969005;28;89008;-61
2023/04/09 00:10:57;;;;;;;;;;;;;;;;;;4966767;28;89443;-60
2023/04/09 00:13:22;;;;;;;;;;;;;;;;;;4965961;28;91043;-60
2023/04/09 00:15:48;;;;;;;;;;;;;;;;;;4966639;28;90007;-61
2023/04/09 00:18:15;;;;;;;;;;;;;;;;;;4965881;28;89374;-60
2023/04/09 00:20:40;;;;;;;;;;;;;;;;;;4966223;28;89128;-61
2023/04/09 00:23:06;;;;;;;;;;;;;;;;;;4966371;28;89552;-60
2023/04/09 00:25:31;;;;;;;;;;;;;;;;;;4966003;28;89938;-63
2023/04/09 00:27:56;;;;;;;;;;;;;;;;;;4966237;28;90099;-61
2023/04/09 00:30:22;;;;;;;;;;;;;;;;;;4968385;28;89747;-61
2023/04/09 00:32:47;;;;;;;;;;;;;;;;;;4965718;28;89093;-61
2023/04/09 00:35:12;;;;;;;;;;;;;;;;;;4965722;28;89758;-62
2023/04/09 00:37:38;;;;;;;;;;;;;;;;;;4964162;28;91907;-61
2023/04/09 00:40:03;;;;;;;;;;;;;;;;;;4967127;28;89075;-63
2023/04/09 00:42:32;;;;;;;;;;;;;;;;;;4976131;28;91030;-61
2023/04/09 00:44:57;;;;;;;;;;;;;;;;;;4969239;28;90104;-62
2023/04/09 00:47:22;;;;;;;;;;;;;;;;;;4969459;28;88961;-62
2023/04/09 00:49:48;;;;;;;;;;;;;;;;;;4969672;28;89492;-63
2023/04/09 00:52:13;;;;;;;;;;;;;;;;;;4972298;28;89400;-62
2023/04/09 00:54:38;;;;;;;;;;;;;;;;;;4967596;28;91192;-62
2023/04/09 00:57:03;;;;;;;;;;;;;;;;;;4968399;28;89787;-63
2023/04/09 00:59:29;;;;;;;;;;;;;;;;;;4969152;28;89739;-62
2023/04/09 01:01:54;;;;;;;;;;;;;;;;;;4969201;28;89633;-63
2023/04/09 01:04:20;;;;;;;;;;;;;;;;;;4969083;28;89695;-62
2023/04/09 01:06:54;;;;;;;;;;;;;;;;;;4968453;28;89486;-63
2023/04/09 01:09:26;;;;;;;;;;;;;;;;;;4969481;28;90803;-62
2023/04/09 01:11:57;;;;;;;;;;;;;;;;;;4972126;28;90352;-62
2023/04/09 01:14:36;;;;;;;;;;;;;;;;;;4968423;28;89733;-62
2023/04/09 01:17:10;;;;;;;;;;;;;;;;;;4967311;28;89730;-62
2023/04/09 01:19:40;;;;;;;;;;;;;;;;;;4968319;28;89323;-63
2023/04/09 01:22:09;;;;;;;;;;;;;;;;;;4968351;28;89989;-63
2023/04/09 01:24:34;;;;;;;;;;;;;;;;;;4968552;28;89113;-61
2023/04/09 01:27:06;;;;;;;;;;;;;;;;;;4968454;28;89217;-62
2023/04/09 01:29:38;;;;;;;;;;;;;;;;;;4967841;28;90811;-60
2023/04/09 01:32:05;;;;;;;;;;;;;;;;;;4967702;28;90092;-61
2023/04/09 01:34:30;;;;;;;;;;;;;;;;;;4971502;28;88999;-63
2023/04/09 01:36:57;;;;;;;;;;;;;;;;;;4968496;28;89760;-62
2023/04/09 01:39:23;;;;;;;;;;;;;;;;;;4967325;28;90249;-63
2023/04/09 01:41:49;;;;;;;;;;;;;;;;;;4968769;28;89783;-61
2023/04/09 01:44:15;;;;;;;;;;;;;;;;;;4968568;28;89849;-61
2023/04/09 01:46:41;;;;;;;;;;;;;;;;;;4968455;28;89515;-61
2023/04/09 01:49:06;;;;;;;;;;;;;;;;;;4967838;28;89737;-60
2023/04/09 01:51:32;;;;;;;;;;;;;;;;;;4967785;28;89847;-60
2023/04/09 01:53:59;;;;;;;;;;;;;;;;;;4967511;28;89119;-61
2023/04/09 01:56:24;;;;;;;;;;;;;;;;;;4970583;28;90687;-62
2023/04/09 01:58:51;;;;;;;;;;;;;;;;;;4968279;28;89654;-61
2023/04/09 02:01:21;;;;;;;;;;;;;;;;;;4967794;28;89515;-63
2023/04/09 02:03:53;;;;;;;;;;;;;;;;;;4980136;28;92431;-63
2023/04/09 02:06:25;;;;;;;;;;;;;;;;;;4986252;28;91302;-62
2023/04/09 02:08:51;;;;;;;;;;;;;;;;;;4971283;28;90762;-62
2023/04/09 02:11:17;;;;;;;;;;;;;;;;;;4967709;28;89650;-62
2023/04/09 02:13:43;;;;;;;;;;;;;;;;;;4967908;28;89584;-64
2023/04/09 02:16:09;;;;;;;;;;;;;;;;;;4967830;28;89790;-64
2023/04/09 02:18:35;;;;;;;;;;;;;;;;;;4970252;28;89586;-60
2023/04/09 02:21:00;;;;;;;;;;;;;;;;;;4967398;28;90830;-60
2023/04/09 02:23:26;;;;;;;;;;;;;;;;;;4967617;28;89417;-61
2023/04/09 02:25:52;;;;;;;;;;;;;;;;;;4968240;28;89586;-60
2023/04/09 02:28:17;;;;;;;;;;;;;;;;;;4967965;28;89717;-60
2023/04/09 02:30:42;;;;;;;;;;;;;;;;;;4967336;28;89669;-61
2023/04/09 02:33:07;;;;;;;;;;;;;;;;;;4967446;28;89129;-60
2023/04/09 02:35:33;;;;;;;;;;;;;;;;;;4967729;28;89802;-60
2023/04/09 02:37:58;;;;;;;;;;;;;;;;;;4967951;28;90686;-63
2023/04/09 02:40:23;;;;;;;;;;;;;;;;;;4966286;28;90298;-63
2023/04/09 02:42:50;;;;;;;;;;;;;;;;;;4954336;28;89658;-63
2023/04/09 02:45:15;;;;;;;;;;;;;;;;;;4955298;28;89408;-63
2023/04/09 02:47:40;;;;;;;;;;;;;;;;;;4960934;28;89761;-62
2023/04/09 02:50:06;;;;;;;;;;;;;;;;;;4949482;28;89330;-63
2023/04/09 02:52:31;;;;;;;;;;;;;;;;;;4963407;28;89096;-62
2023/04/09 02:54:56;;;;;;;;;;;;;;;;;;4960484;28;89733;-63
2023/04/09 02:57:21;;;;;;;;;;;;;;;;;;4956164;28;89630;-62
2023/04/09 02:59:47;;;;;;;;;;;;;;;;;;4965996;28;89586;-63
2023/04/09 03:02:12;;;;;;;;;;;;;;;;;;4962715;28;90253;-61
2023/04/09 03:04:37;;;;;;;;;;;;;;;;;;4959247;28;89993;-62
2023/04/09 03:07:03;;;;;;;;;;;;;;;;;;4957924;28;90274;-62
2023/04/09 03:09:29;;;;;;;;;;;;;;;;;;4952406;28;89373;-63
2023/04/09 03:11:56;;;;;;;;;;;;;;;;;;4956184;28;90608;-62
2023/04/09 03:14:21;;;;;;;;;;;;;;;;;;4960121;28;90621;-63
2023/04/09 03:16:46;;;;;;;;;;;;;;;;;;4950658;28;89158;-62
2023/04/09 03:19:11;;;;;;;;;;;;;;;;;;4957954;28;89336;-63
2023/04/09 03:21:36;;;;;;;;;;;;;;;;;;4961160;28;89682;-64
2023/04/09 03:24:02;;;;;;;;;;;;;;;;;;4954617;28;90280;-62
2023/04/09 03:26:27;;;;;;;;;;;;;;;;;;4964487;28;89927;-62
2023/04/09 03:28:53;;;;;;;;;;;;;;;;;;4959634;28;90667;-62
2023/04/09 03:31:18;;;;;;;;;;;;;;;;;;4961924;28;89817;-61
2023/04/09 03:33:43;;;;;;;;;;;;;;;;;;4955976;28;89693;-63
2023/04/09 03:36:08;;;;;;;;;;;;;;;;;;4961251;28;89629;-61
2023/04/09 03:38:34;;;;;;;;;;;;;;;;;;4955165;28;88975;-62
2023/04/09 03:40:59;;;;;;;;;;;;;;;;;;4951754;28;90727;-61
2023/04/09 03:43:25;;;;;;;;;;;;;;;;;;4958948;28;89301;-60
2023/04/09 03:45:50;;;;;;;;;;;;;;;;;;4957869;28;90152;-61
2023/04/09 03:48:15;;;;;;;;;;;;;;;;;;4956148;28;89602;-61
2023/04/09 03:50:40;;;;;;;;;;;;;;;;;;4958299;28;90182;-61
2023/04/09 03:53:06;;;;;;;;;;;;;;;;;;4960156;28;90354;-62
2023/04/09 03:55:31;;;;;;;;;;;;;;;;;;4955205;28;89631;-61
2023/04/09 03:57:56;;;;;;;;;;;;;;;;;;4955353;28;89648;-62
2023/04/09 04:00:22;;;;;;;;;;;;;;;;;;4958879;28;89753;-61
2023/04/09 04:02:47;;;;;;;;;;;;;;;;;;4960678;28;90661;-62
2023/04/09 04:05:12;;;;;;;;;;;;;;;;;;4959761;28;89078;-60
2023/04/09 04:07:37;;;;;;;;;;;;;;;;;;4959637;28;89321;-63
2023/04/09 04:10:06;;;;;;;;;;;;;;;;;;4956542;28;90098;-62
2023/04/09 04:12:31;;;;;;;;;;;;;;;;;;4963720;28;90522;-62
2023/04/09 04:14:57;;;;;;;;;;;;;;;;;;4964068;28;90175;-63
2023/04/09 04:17:22;;;;;;;;;;;;;;;;;;4971367;28;90680;-63
2023/04/09 04:19:47;;;;;;;;;;;;;;;;;;4964183;28;89880;-63
2023/04/09 04:22:12;;;;;;;;;;;;;;;;;;4959492;28;90107;-63
2023/04/09 04:24:37;;;;;;;;;;;;;;;;;;4963030;28;89768;-62
2023/04/09 04:27:03;;;;;;;;;;;;;;;;;;4958520;28;89631;-62
2023/04/09 04:29:28;;;;;;;;;;;;;;;;;;4960128;28;89082;-61
2023/04/09 04:31:54;;;;;;;;;;;;;;;;;;4956546;28;89974;-60
2023/04/09 04:34:19;;;;;;;;;;;;;;;;;;4956447;28;89555;-61
2023/04/09 04:36:44;;;;;;;;;;;;;;;;;;4953614;28;89110;-63
2023/04/09 04:39:10;;;;;;;;;;;;;;;;;;4952390;28;89784;-60
2023/04/09 04:41:35;;;;;;;;;;;;;;;;;;4961052;28;89305;-61
2023/04/09 04:44:00;;;;;;;;;;;;;;;;;;4957678;28;90331;-61
2023/04/09 04:46:25;;;;;;;;;;;;;;;;;;4958940;28;89667;-61
2023/04/09 04:48:51;;;;;;;;;;;;;;;;;;4967816;28;91857;-61
2023/04/09 04:51:16;;;;;;;;;;;;;;;;;;4958547;28;91613;-60
2023/04/09 04:53:41;;;;;;;;;;;;;;;;;;4960978;28;89640;-60
2023/04/09 04:56:11;;;;;;;;;;;;;;;;;;4971494;28;89800;-60
2023/04/09 04:58:36;;;;;;;;;;;;;;;;;;4955061;28;89978;-62
2023/04/09 05:01:01;;;;;;;;;;;;;;;;;;4959431;28;90558;-63
2023/04/09 05:03:27;;;;;;;;;;;;;;;;;;4962413;28;90060;-62
2023/04/09 05:05:52;;;;;;;;;;;;;;;;;;4959690;28;90698;-62
2023/04/09 05:08:17;;;;;;;;;;;;;;;;;;4958831;28;89493;-62
2023/04/09 05:10:44;;;;;;;;;;;;;;;;;;4962392;28;90081;-62
2023/04/09 05:13:09;;;;;;;;;;;;;;;;;;4962667;28;90534;-63
2023/04/09 05:15:36;;;;;;;;;;;;;;;;;;4955324;28;89487;-62
2023/04/09 05:18:02;;;;;;;;;;;;;;;;;;4954578;28;89820;-62
2023/04/09 05:20:27;;;;;;;;;;;;;;;;;;4954976;28;90142;-62
2023/04/09 05:22:52;;;;;;;;;;;;;;;;;;4956216;28;89379;-63
2023/04/09 05:25:17;;;;;;;;;;;;;;;;;;4953407;28;90978;-62
2023/04/09 05:27:42;;;;;;;;;;;;;;;;;;4961103;28;89776;-65
2023/04/09 05:30:08;;;;;;;;;;;;;;;;;;4963393;28;89588;-63
2023/04/09 05:32:33;;;;;;;;;;;;;;;;;;4963213;28;89513;-62
2023/04/09 05:34:58;;;;;;;;;;;;;;;;;;4956256;28;90571;-63
2023/04/09 05:37:24;;;;;;;;;;;;;;;;;;4963512;28;89491;-63
2023/04/09 05:39:49;;;;;;;;;;;;;;;;;;4958820;28;89241;-62
2023/04/09 05:42:15;;;;;;;;;;;;;;;;;;4961061;28;89536;-62
2023/04/09 05:44:40;;;;;;;;;;;;;;;;;;4959202;28;90283;-61
2023/04/09 05:47:05;;;;;;;;;;;;;;;;;;4954891;28;91139;-62
2023/04/09 05:49:31;;;;;;;;;;;;;;;;;;4960274;28;89505;-61
2023/04/09 05:51:56;;;;;;;;;;;;;;;;;;4956874;28;90855;-62
2023/04/09 05:54:21;;;;;;;;;;;;;;;;;;4962584;28;89436;-61
2023/04/09 05:56:47;;;;;;;;;;;;;;;;;;4956206;28;89074;-61
2023/04/09 05:59:12;;;;;;;;;;;;;;;;;;4960839;28;89863;-61
2023/04/09 06:01:37;;;;;;;;;;;;;;;;;;4957599;28;91029;-62
2023/04/09 06:04:02;;;;;;;;;;;;;;;;;;4957504;28;89738;-62
2023/04/09 06:06:28;;;;;;;;;;;;;;;;;;4956383;28;89386;-62
2023/04/09 06:08:53;;;;;;;;;;;;;;;;;;4958320;28;89142;-63
2023/04/09 06:11:18;;;;;;;;;;;;;;;;;;4960120;28;89709;-65
2023/04/09 06:13:43;;;;;;;;;;;;;;;;;;4963130;28;89382;-68
2023/04/09 06:16:09;;;;;;;;;;;;;;;;;;4962504;28;90058;-69
2023/04/09 06:18:35;;;;;;;;;;;;;;;;;;4956993;28;89298;-64
2023/04/09 06:21:01;;;;;;;;;;;;;;;;;;4954764;28;90332;-64
2023/04/09 06:23:26;;;;;;;;;;;;;;;;;;4956516;28;90677;-62
2023/04/09 06:25:51;;;;;;;;;;;;;;;;;;4956641;28;90404;-63
2023/04/09 06:28:16;;;;;;;;;;;;;;;;;;4958016;28;89119;-63
2023/04/09 06:30:42;;;;;;;;;;;;;;;;;;4959324;28;89677;-64
2023/04/09 06:33:07;;;;;;;;;;;;;;;;;;4955159;28;90271;-65
2023/04/09 06:35:33;;;;;;;;;;;;;;;;;;4962621;28;90018;-66
2023/04/09 06:37:58;;;;;;;;;;;;;;;;;;4956237;28;89908;-66
2023/04/09 06:40:23;;;;;;;;;;;;;;;;;;4959999;28;89592;-66
2023/04/09 06:42:49;;;;;;;;;;;;;;;;;;4959738;28;89735;-63
2023/04/09 06:45:14;;;;;;;;;;;;;;;;;;4958615;28;90382;-63
2023/04/09 06:47:40;;;;;;;;;;;;;;;;;;4956446;28;88929;-65
2023/04/09 06:50:05;;;;;;;;;;;;;;;;;;4954153;28;89721;-63
2023/04/09 06:52:30;;;;;;;;;;;;;;;;;;4952819;28;89735;-65
2023/04/09 06:54:55;;;;;;;;;;;;;;;;;;4960504;28;89455;-63
2023/04/09 06:57:21;;;;;;;;;;;;;;;;;;4960396;28;89767;-65
2023/04/09 06:59:46;;;;;;;;;;;;;;;;;;4953320;28;90107;-65
2023/04/09 07:02:11;;;;;;;;;;;;;;;;;;4957871;28;89673;-64
2023/04/09 07:04:36;;;;;;;;;;;;;;;;;;4956581;28;89468;-64
2023/04/09 07:07:01;;;;;;;;;;;;;;;;;;4960932;28;89028;-64
2023/04/09 07:09:27;;;;;;;;;;;;;;;;;;4957034;28;89980;-64
2023/04/09 07:11:52;;;;;;;;;;;;;;;;;;4956457;28;89246;-63
2023/04/09 07:14:17;;;;;;;;;;;;;;;;;;4956740;28;89631;-63
2023/04/09 07:16:45;;;;;;;;;;;;;;;;;;4955846;28;89602;-63
2023/04/09 07:19:10;;;;;;;;;;;;;;;;;;4953862;28;89779;-63
2023/04/09 07:21:35;;;;;;;;;;;;;;;;;;4955616;28;89731;-63
2023/04/09 07:24:00;;;;;;;;;;;;;;;;;;4955995;28;89376;-66
2023/04/09 07:26:26;;;;;;;;;;;;;;;;;;4954146;28;89488;-65
2023/04/09 07:28:51;;;;;;;;;;;;;;;;;;4955684;28;89713;-64
2023/04/09 07:31:16;;;;;;;;;;;;;;;;;;4955042;28;89400;-63
2023/04/09 07:33:41;;;;;;;;;;;;;;;;;;4954132;28;89423;-64
2023/04/09 07:36:07;;;;;;;;;;;;;;;;;;4952071;28;90620;-63
2023/04/09 07:38:33;;;;;;;;;;;;;;;;;;4964417;28;91544;-64
2023/04/09 07:40:59;;;;;;;;;;;;;;;;;;4957930;28;89557;-66
2023/04/09 07:43:24;;;;;;;;;;;;;;;;;;4951516;28;89065;-64
2023/04/09 07:45:50;;;;;;;;;;;;;;;;;;4957357;28;89111;-63
2023/04/09 07:48:15;;;;;;;;;;;;;;;;;;4955932;28;90612;-63
2023/04/09 07:50:41;;;;;;;;;;;;;;;;;;4961117;28;89442;-63
2023/04/09 07:53:06;;;;;;;;;;;;;;;;;;4964224;28;89602;-62
2023/04/09 07:55:31;;;;;;;;;;;;;;;;;;4956819;28;90744;-63
2023/04/09 07:57:56;;;;;;;;;;;;;;;;;;4962556;28;89791;-64
2023/04/09 08:00:22;;;;;;;;;;;;;;;;;;4959140;28;89682;-65
2023/04/09 08:02:47;;;;;;;;;;;;;;;;;;4961027;28;91443;-69
2023/04/09 08:05:12;;;;;;;;;;;;;;;;;;4958909;28;89986;-65
2023/04/09 08:07:37;;;;;;;;;;;;;;;;;;4957332;28;90921;-71
2023/04/09 08:10:03;;;;;;;;;;;;;;;;;;4953039;28;89652;-64
2023/04/09 08:12:28;;;;;;;;;;;;;;;;;;4954652;28;89442;-65
2023/04/09 08:14:53;;;;;;;;;;;;;;;;;;4955889;28;89622;-65
2023/04/09 08:17:18;;;;;;;;;;;;;;;;;;4960448;28;89488;-64
2023/04/09 08:19:44;;;;;;;;;;;;;;;;;;4958075;28;90107;-63
2023/04/09 08:22:09;;;;;;;;;;;;;;;;;;4956984;28;90346;-65
2023/04/09 08:24:34;;;;;;;;;;;;;;;;;;4960307;28;89631;-65
2023/04/09 08:27:00;;;;;;;;;;;;;;;;;;4971371;28;90113;-64
2023/04/09 08:29:26;;;;;;;;;;;;;;;;;;4958918;28;90634;-65
2023/04/09 08:31:51;;;;;;;;;;;;;;;;;;4962187;28;89181;-64
2023/04/09 08:34:19;;;;;;;;;;;;;;;;;;4959830;28;89706;-64
2023/04/09 08:36:45;;;;;;;;;;;;;;;;;;4961150;28;89283;-63
2023/04/09 08:39:10;;;;;;;;;;;;;;;;;;4959164;28;89094;-64
2023/04/09 08:41:40;;;;;;;;;;;;;;;;;;4958707;28;91681;-64
2023/04/09 08:44:06;;;;;;;;;;;;;;;;;;4964022;28;89256;-63
2023/04/09 08:46:31;;;;;;;;;;;;;;;;;;4959579;28;91154;-65
2023/04/09 08:48:56;;;;;;;;;;;;;;;;;;4961602;28;89692;-64
2023/04/09 08:51:22;;;;;;;;;;;;;;;;;;4962429;28;89058;-63
2023/04/09 08:53:51;;;;;;;;;;;;;;;;;;4964393;28;91319;-64
2023/04/09 08:56:16;;;;;;;;;;;;;;;;;;4962693;28;90118;-64
2023/04/09 08:58:43;;;;;;;;;;;;;;;;;;4960382;28;89755;-64
2023/04/09 09:01:22;;;;;;;;;;;;;;;;;;4960155;28;89782;-65
2023/04/09 09:04:06;;;;;;;;;;;;;;;;;;4958543;28;89960;-64
2023/04/09 09:06:32;;;;;;;;;;;;;;;;;;4960305;28;89185;-66
2023/04/09 09:09:00;;;;;;;;;;;;;;;;;;4956448;28;89202;-64
2023/04/09 09:11:26;;;;;;;;;;;;;;;;;;4959577;28;89025;-64
2023/04/09 09:14:02;;;;;;;;;;;;;;;;;;4951731;28;89814;-65
2023/04/09 09:16:27;;;;;;;;;;;;;;;;;;4954076;28;90366;-64
2023/04/09 09:18:54;;;;;;;;;;;;;;;;;;4960475;28;90872;-65
2023/04/09 09:21:20;;;;;;;;;;;;;;;;;;4959801;28;90656;-64
2023/04/09 09:23:47;;;;;;;;;;;;;;;;;;4954038;28;90020;-65
2023/04/09 09:26:12;;;;;;;;;;;;;;;;;;4960443;28;91203;-66
2023/04/09 09:28:37;;;;;;;;;;;;;;;;;;4956486;28;90949;-63
2023/04/09 09:31:09;;;;;;;;;;;;;;;;;;4958612;28;91889;-64
2023/04/09 09:33:35;;;;;;;;;;;;;;;;;;4958952;28;89881;-64
2023/04/09 09:36:02;;;;;;;;;;;;;;;;;;4957085;28;89889;-62
2023/04/09 09:38:28;;;;;;;;;;;;;;;;;;4958893;28;90548;-63
2023/04/09 09:40:53;;;;;;;;;;;;;;;;;;4963055;28;89789;-63
2023/04/09 09:43:18;;;;;;;;;;;;;;;;;;4957205;28;90391;-64
2023/04/09 09:45:45;;;;;;;;;;;;;;;;;;4958184;28;90754;-65
2023/04/09 09:48:11;;;;;;;;;;;;;;;;;;4959359;28;90367;-64
2023/04/09 09:50:37;;;;;;;;;;;;;;;;;;4957232;28;89724;-64
2023/04/09 09:53:04;;;;;;;;;;;;;;;;;;4961599;28;91087;-64
2023/04/09 09:55:31;;;;;;;;;;;;;;;;;;4956893;28;90148;-64
2023/04/09 09:57:57;;;;;;;;;;;;;;;;;;4956251;28;89697;-64
2023/04/09 10:00:24;;;;;;;;;;;;;;;;;;4953625;28;90610;-69
2023/04/09 10:02:55;;;;;;;;;;;;;;;;;;4958615;28;91186;-63
2023/04/09 10:05:23;;;;;;;;;;;;;;;;;;4958506;28;89080;-63
2023/04/09 10:07:49;;;;;;;;;;;;;;;;;;4959603;28;89810;-63
2023/04/09 10:10:15;;;;;;;;;;;;;;;;;;4964176;28;90349;-63
2023/04/09 10:12:40;;;;;;;;;;;;;;;;;;4956575;28;92423;-64
2023/04/09 10:15:06;;;;;;;;;;;;;;;;;;4960185;28;89666;-64
2023/04/09 10:17:31;;;;;;;;;;;;;;;;;;4958187;28;89257;-64
2023/04/09 10:20:09;;;;;;;;;;;;;;;;;;4959204;28;89439;-65
2023/04/09 10:22:35;;;;;;;;;;;;;;;;;;4956817;28;89360;-72
2023/04/09 10:25:01;;;;;;;;;;;;;;;;;;4961653;28;90318;-64
2023/04/09 10:27:27;;;;;;;;;;;;;;;;;;4960699;28;90475;-68
2023/04/09 10:29:52;;;;;;;;;;;;;;;;;;4963909;28;89916;-73
2023/04/09 10:32:22;;;;;;;;;;;;;;;;;;4965637;28;89084;-66
2023/04/09 10:34:49;;;;;;;;;;;;;;;;;;4961945;28;90117;-63
2023/04/09 10:37:21;;;;;;;;;;;;;;;;;;4964751;28;88977;-64
2023/04/09 10:39:47;;;;;;;;;;;;;;;;;;4958773;28;90860;-64
2023/04/09 10:42:13;;;;;;;;;;;;;;;;;;4958389;28;90681;-64
2023/04/09 10:44:40;;;;;;;;;;;;;;;;;;4962226;28;89354;-63
2023/04/09 10:47:06;;;;;;;;;;;;;;;;;;4961657;28;90294;-65
2023/04/09 10:49:36;;;;;;;;;;;;;;;;;;4957916;28;89641;-64
2023/04/09 10:52:03;;;;;;;;;;;;;;;;;;4959870;28;89908;-64
2023/04/09 10:54:32;;;;;;;;;;;;;;;;;;4960956;28;90068;-65
2023/04/09 10:57:06;;;;;;;;;;;;;;;;;;4959457;28;90012;-64
2023/04/09 10:59:32;;;;;;;;;;;;;;;;;;4978494;28;93249;-70
2023/04/09 11:01:57;;;;;;;;;;;;;;;;;;4960952;28;89976;-62
2023/04/09 11:04:28;;;;;;;;;;;;;;;;;;4963709;28;90833;-64
2023/04/09 11:06:54;;;;;;;;;;;;;;;;;;4961081;28;91323;-63
2023/04/09 11:09:20;;;;;;;;;;;;;;;;;;4954847;28;89464;-64
2023/04/09 11:11:50;;;;;;;;;;;;;;;;;;4953813;28;90060;-69
2023/04/09 11:14:19;;;;;;;;;;;;;;;;;;4957014;28;90199;-69
2023/04/09 11:16:46;;;;;;;;;;;;;;;;;;4953235;28;91436;-65
2023/04/09 11:19:11;;;;;;;;;;;;;;;;;;4954580;28;90870;-63
2023/04/09 11:21:36;;;;;;;;;;;;;;;;;;4961108;28;92239;-65
2023/04/09 11:24:02;;;;;;;;;;;;;;;;;;4966730;28;90783;-67
2023/04/09 11:26:36;;;;;;;;;;;;;;;;;;4959306;28;89465;-67
2023/04/09 11:29:08;;;;;;;;;;;;;;;;;;4958122;28;90672;-64
2023/04/09 11:31:34;;;;;;;;;;;;;;;;;;4972259;28;90392;-70
2023/04/09 11:33:59;;;;;;;;;;;;;;;;;;4958515;28;89684;-67
2023/04/09 11:36:26;;;;;;;;;;;;;;;;;;4960979;28;89006;-66
2023/04/09 11:38:53;;;;;;;;;;;;;;;;;;4955496;28;90595;-66
2023/04/09 11:41:31;;;;;;;;;;;;;;;;;;4963651;28;91350;-67
2023/04/09 11:43:56;;;;;;;;;;;;;;;;;;4957527;28;88971;-69
2023/04/09 11:46:24;;;;;;;;;;;;;;;;;;4966174;28;91900;-65
2023/04/09 11:48:50;;;;;;;;;;;;;;;;;;4953703;28;90301;-66
2023/04/09 11:51:15;;;;;;;;;;;;;;;;;;4958593;28;89288;-66
2023/04/09 11:53:40;;;;;;;;;;;;;;;;;;4954077;28;89669;-63
2023/04/09 11:56:06;;;;;;;;;;;;;;;;;;4957850;28;90285;-65
2023/04/09 11:58:31;;;;;;;;;;;;;;;;;;4961244;28;89065;-66
2023/04/09 12:00:59;;;;;;;;;;;;;;;;;;4960264;28;90218;-69
2023/04/09 12:03:29;;;;;;;;;;;;;;;;;;4960715;28;89751;-70
2023/04/09 12:05:54;;;;;;;;;;;;;;;;;;4957331;28;90301;-67
2023/04/09 12:08:22;;;;;;;;;;;;;;;;;;4960322;28;89461;-64
2023/04/09 12:10:47;;;;;;;;;;;;;;;;;;4964371;28;90640;-64
2023/04/09 12:13:12;;;;;;;;;;;;;;;;;;4956658;28;89717;-67
2023/04/09 12:15:40;;;;;;;;;;;;;;;;;;4960542;28;89634;-70
2023/04/09 12:18:10;;;;;;;;;;;;;;;;;;4959385;28;89335;-66
2023/04/09 12:20:36;;;;;;;;;;;;;;;;;;4959483;28;89758;-66
2023/04/09 12:23:02;;;;;;;;;;;;;;;;;;4960665;28;89498;-68
2023/04/09 12:25:28;;;;;;;;;;;;;;;;;;4956108;28;89742;-71
2023/04/09 12:27:54;;;;;;;;;;;;;;;;;;4958078;28;89386;-66
2023/04/09 12:30:20;;;;;;;;;;;;;;;;;;4955928;28;89658;-68
2023/04/09 12:32:45;;;;;;;;;;;;;;;;;;4951840;28;90044;-67
2023/04/09 12:35:11;;;;;;;;;;;;;;;;;;4956696;28;90513;-64
2023/04/09 12:37:36;;;;;;;;;;;;;;;;;;4960232;28;89151;-71
2023/04/09 12:40:02;;;;;;;;;;;;;;;;;;4960758;28;89786;-65
2023/04/09 12:42:27;;;;;;;;;;;;;;;;;;4959780;28;90542;-63
2023/04/09 12:44:52;;;;;;;;;;;;;;;;;;4958428;28;89909;-63
2023/04/09 12:47:18;;;;;;;;;;;;;;;;;;4958289;28;91272;-64
2023/04/09 12:49:45;;;;;;;;;;;;;;;;;;4951721;28;91451;-66
2023/04/09 12:52:10;;;;;;;;;;;;;;;;;;4951396;28;91186;-68
2023/04/09 12:54:35;;;;;;;;;;;;;;;;;;4955432;28;91312;-68
2023/04/09 12:57:00;;;;;;;;;;;;;;;;;;4956364;28;91070;-63
2023/04/09 12:59:26;;;;;;;;;;;;;;;;;;4957368;28;89771;-72
2023/04/09 13:01:51;;;;;;;;;;;;;;;;;;4951688;28;91000;-65
2023/04/09 13:04:17;;;;;;;;;;;;;;;;;;4963609;28;90709;-66
2023/04/09 13:06:42;;;;;;;;;;;;;;;;;;4955341;28;92328;-69
2023/04/09 13:09:07;;;;;;;;;;;;;;;;;;4952346;28;90760;-66
2023/04/09 13:11:33;;;;;;;;;;;;;;;;;;4951977;28;91146;-64
2023/04/09 13:13:58;;;;;;;;;;;;;;;;;;4957667;28;91699;-63
2023/04/09 13:16:23;;;;;;;;;;;;;;;;;;4950149;28;90084;-62
2023/04/09 13:18:48;;;;;;;;;;;;;;;;;;4953531;28;89717;-64
2023/04/09 13:21:17;;;;;;;;;;;;;;;;;;4951942;28;89272;-63
2023/04/09 13:23:42;;;;;;;;;;;;;;;;;;4953365;28;90767;-62
2023/04/09 13:26:08;;;;;;;;;;;;;;;;;;4954405;28;91310;-62
2023/04/09 13:28:33;;;;;;;;;;;;;;;;;;4951554;28;89898;-64
2023/04/09 13:30:58;;;;;;;;;;;;;;;;;;4951473;28;89797;-63
2023/04/09 13:33:23;;;;;;;;;;;;;;;;;;4951905;28;89675;-62
2023/04/09 13:35:50;;;;;;;;;;;;;;;;;;4956192;28;89479;-61
2023/04/09 13:38:15;;;;;;;;;;;;;;;;;;4954388;28;92401;-61
2023/04/09 13:40:40;;;;;;;;;;;;;;;;;;4957428;28;89815;-66
2023/04/09 13:43:05;;;;;;;;;;;;;;;;;;4952008;28;89541;-62
2023/04/09 13:45:31;;;;;;;;;;;;;;;;;;4961887;28;89844;-65
2023/04/09 13:47:56;;;;;;;;;;;;;;;;;;4958727;28;90204;-68
2023/04/09 13:50:21;;;;;;;;;;;;;;;;;;4959447;28;89471;-63
2023/04/09 13:52:47;;;;;;;;;;;;;;;;;;4961273;28;89550;-65
2023/04/09 13:55:12;;;;;;;;;;;;;;;;;;4953611;28;91072;-62
2023/04/09 13:57:37;;;;;;;;;;;;;;;;;;4957244;28;90470;-64
2023/04/09 14:00:03;;;;;;;;;;;;;;;;;;4949823;28;90156;-65
2023/04/09 14:02:28;;;;;;;;;;;;;;;;;;4957332;28;89787;-62
2023/04/09 14:04:54;;;;;;;;;;;;;;;;;;4956779;28;90515;-65
2023/04/09 14:07:19;;;;;;;;;;;;;;;;;;4962876;28;92122;-62
2023/04/09 14:09:45;;;;;;;;;;;;;;;;;;4956129;28;90566;-63
2023/04/09 14:12:10;;;;;;;;;;;;;;;;;;4959830;28;91434;-66
2023/04/09 14:14:35;;;;;;;;;;;;;;;;;;4954338;28;89712;-64
2023/04/09 14:17:00;;;;;;;;;;;;;;;;;;4952644;28;89758;-64
2023/04/09 14:19:26;;;;;;;;;;;;;;;;;;4953508;28;89412;-64
2023/04/09 14:21:52;;;;;;;;;;;;;;;;;;4951956;28;89485;-68
2023/04/09 14:24:18;;;;;;;;;;;;;;;;;;4957202;28;90669;-71
2023/04/09 14:26:44;;;;;;;;;;;;;;;;;;4950079;28;90533;-70
2023/04/09 14:29:09;;;;;;;;;;;;;;;;;;4956068;28;89450;-65
2023/04/09 14:31:35;;;;;;;;;;;;;;;;;;4950900;28;90072;-71
2023/04/09 14:34:00;;;;;;;;;;;;;;;;;;4954160;28;89708;-68
2023/04/09 14:36:26;;;;;;;;;;;;;;;;;;4952225;28;90340;-71
2023/04/09 14:38:51;;;;;;;;;;;;;;;;;;4954823;28;89708;-68
2023/04/09 14:41:16;;;;;;;;;;;;;;;;;;4957802;28;89077;-71
2023/04/09 14:43:41;;;;;;;;;;;;;;;;;;4959773;28;90164;-71
2023/04/09 14:46:10;;;;;;;;;;;;;;;;;;4961680;28;89665;-72
2023/04/09 14:48:35;;;;;;;;;;;;;;;;;;4959552;28;89950;-73
2023/04/09 14:51:01;;;;;;;;;;;;;;;;;;4955183;28;91260;-70
2023/04/09 14:53:26;;;;;;;;;;;;;;;;;;4954975;28;89488;-69
2023/04/09 14:55:51;;;;;;;;;;;;;;;;;;4958656;28;89712;-70
2023/04/09 14:58:16;;;;;;;;;;;;;;;;;;4957952;28;89676;-66
2023/04/09 15:00:43;;;;;;;;;;;;;;;;;;4958351;28;89507;-69
2023/04/09 15:03:09;;;;;;;;;;;;;;;;;;4958764;28;90913;-66
2023/04/09 15:05:35;;;;;;;;;;;;;;;;;;4955716;28;89272;-66
2023/04/09 15:08:00;;;;;;;;;;;;;;;;;;4956148;28;89657;-73
2023/04/09 15:10:25;;;;;;;;;;;;;;;;;;4953181;28;91895;-72
2023/04/09 15:12:51;;;;;;;;;;;;;;;;;;4971714;28;92247;-71
2023/04/09 15:15:16;;;;;;;;;;;;;;;;;;4950021;28;89684;-67
2023/04/09 15:17:41;;;;;;;;;;;;;;;;;;4950853;28;89656;-69
2023/04/09 15:20:06;;;;;;;;;;;;;;;;;;4959331;28;89773;-67
2023/04/09 15:22:32;;;;;;;;;;;;;;;;;;4925755;28;92770;-66
2023/04/09 15:24:57;;;;;;;;;;;;;;;;;;4950151;28;92886;-67
2023/04/09 15:27:22;;;;;;;;;;;;;;;;;;4954289;28;90736;-65
2023/04/09 15:29:48;;;;;;;;;;;;;;;;;;4958094;28;89871;-65
2023/04/09 15:32:13;;;;;;;;;;;;;;;;;;4958436;28;89225;-71
2023/04/09 15:34:38;;;;;;;;;;;;;;;;;;4954158;28;93545;-68
2023/04/09 15:37:03;;;;;;;;;;;;;;;;;;4951905;28;89511;-65
2023/04/09 15:39:28;;;;;;;;;;;;;;;;;;4954918;28;89509;-65
2023/04/09 15:41:57;;;;;;;;;;;;;;;;;;4956393;28;89752;-65
2023/04/09 15:44:22;;;;;;;;;;;;;;;;;;4957678;28;89644;-66
2023/04/09 15:46:48;;;;;;;;;;;;;;;;;;4955936;28;89689;-65
2023/04/09 15:49:13;;;;;;;;;;;;;;;;;;4952413;28;89707;-65
2023/04/09 15:51:38;;;;;;;;;;;;;;;;;;4956579;28;90265;-69
2023/04/09 15:54:03;;;;;;;;;;;;;;;;;;4955937;28;89167;-69
2023/04/09 15:56:28;;;;;;;;;;;;;;;;;;4958080;28;89241;-67
2023/04/09 15:58:54;;;;;;;;;;;;;;;;;;4955403;28;89826;-65
2023/04/09 16:01:19;;;;;;;;;;;;;;;;;;4963567;28;89743;-68
2023/04/09 16:03:50;;;;;;;;;;;;;;;;;;4954605;28;89706;-66
2023/04/09 16:06:15;;;;;;;;;;;;;;;;;;4954455;28;89145;-68
2023/04/09 16:08:41;;;;;;;;;;;;;;;;;;4953018;28;89746;-64
2023/04/09 16:11:07;;;;;;;;;;;;;;;;;;4963014;28;89750;-67
2023/04/09 16:13:32;;;;;;;;;;;;;;;;;;4957362;28;90106;-64
2023/04/09 16:15:57;;;;;;;;;;;;;;;;;;4959818;28;90878;-64
2023/04/09 16:18:23;;;;;;;;;;;;;;;;;;4963498;28;90894;-65
2023/04/09 16:20:55;;;;;;;;;;;;;;;;;;4966263;28;89617;-64
2023/04/09 16:23:21;;;;;;;;;;;;;;;;;;4962998;28;89929;-66
2023/04/09 16:25:46;;;;;;;;;;;;;;;;;;4962443;28;89194;-64
2023/04/09 16:28:13;;;;;;;;;;;;;;;;;;4964904;28;90706;-64
2023/04/09 16:30:38;;;;;;;;;;;;;;;;;;4965765;28;89725;-66
2023/04/09 16:33:03;;;;;;;;;;;;;;;;;;4964860;28;89496;-67
2023/04/09 16:35:28;;;;;;;;;;;;;;;;;;4961190;28;91514;-65
2023/04/09 16:37:54;;;;;;;;;;;;;;;;;;4968482;28;90815;-67